sensor_id;sensor_type;location;lat;lon;timestamp;P1;durP1;ratioP1;P2;durP2;ratioP2
13102;SDS011;52970;46.752;17.108;2024-03-02T00:01:16;71.25;;;43.22;;
13102;SDS011;52970;46.752;17.108;2024-03-02T00:03:42;61.92;;;40.78;;
13102;SDS011;52970;46.752;17.108;2024-03-02T00:06:08;57.75;;;39.88;;
13102;SDS011;52970;46.752;17.108;2024-03-02T00:08:34;54.55;;;37.85;;
13102;SDS011;52970;46.752;17.108;2024-03-02T00:11:00;55.95;;;38.70;;
13102;SDS011;52970;46.752;17.108;2024-03-02T00:13:26;52.40;;;36.60;;
13102;SDS011;52970;46.752;17.108;2024-03-02T00:15:54;48.70;;;35.20;;
13102;SDS011;52970;46.752;17.108;2024-03-02T00:18:41;58.40;;;38.20;;
13102;SDS011;52970;46.752;17.108;2024-03-02T00:21:05;78.78;;;47.72;;
13102;SDS011;52970;46.752;17.108;2024-03-02T00:23:31;67.13;;;40.50;;
13102;SDS011;52970;46.752;17.108;2024-03-02T00:25:57;60.15;;;40.17;;
13102;SDS011;52970;46.752;17.108;2024-03-02T00:28:35;58.65;;;39.50;;
13102;SDS011;52970;46.752;17.108;2024-03-02T00:31:04;56.40;;;39.40;;
13102;SDS011;52970;46.752;17.108;2024-03-02T00:33:33;61.60;;;40.72;;
13102;SDS011;52970;46.752;17.108;2024-03-02T00:35:59;53.45;;;36.58;;
13102;SDS011;52970;46.752;17.108;2024-03-02T00:38:25;55.38;;;39.75;;
13102;SDS011;52970;46.752;17.108;2024-03-02T00:40:51;53.42;;;37.28;;
13102;SDS011;52970;46.752;17.108;2024-03-02T00:46:00;58.20;;;38.15;;
13102;SDS011;52970;46.752;17.108;2024-03-02T00:48:26;55.22;;;38.33;;
13102;SDS011;52970;46.752;17.108;2024-03-02T00:50:52;49.75;;;35.85;;
13102;SDS011;52970;46.752;17.108;2024-03-02T00:53:17;47.53;;;34.88;;
13102;SDS011;52970;46.752;17.108;2024-03-02T00:55:45;59.75;;;38.20;;
13102;SDS011;52970;46.752;17.108;2024-03-02T00:58:12;159.77;;;72.10;;
13102;SDS011;52970;46.752;17.108;2024-03-02T01:00:38;77.00;;;43.88;;
13102;SDS011;52970;46.752;17.108;2024-03-02T01:03:03;63.75;;;40.42;;
13102;SDS011;52970;46.752;17.108;2024-03-02T01:05:29;60.58;;;38.40;;
13102;SDS011;52970;46.752;17.108;2024-03-02T01:07:54;51.58;;;35.80;;
13102;SDS011;52970;46.752;17.108;2024-03-02T01:10:19;60.65;;;39.05;;
13102;SDS011;52970;46.752;17.108;2024-03-02T01:12:45;55.67;;;35.65;;
13102;SDS011;52970;46.752;17.108;2024-03-02T01:15:10;48.83;;;34.42;;
13102;SDS011;52970;46.752;17.108;2024-03-02T01:17:36;52.88;;;36.42;;
13102;SDS011;52970;46.752;17.108;2024-03-02T01:20:01;46.35;;;33.58;;
13102;SDS011;52970;46.752;17.108;2024-03-02T01:22:26;48.00;;;34.63;;
13102;SDS011;52970;46.752;17.108;2024-03-02T01:24:52;46.20;;;33.05;;
13102;SDS011;52970;46.752;17.108;2024-03-02T01:27:17;81.75;;;44.80;;
13102;SDS011;52970;46.752;17.108;2024-03-02T01:29:42;54.63;;;36.40;;
13102;SDS011;52970;46.752;17.108;2024-03-02T01:32:08;45.58;;;33.45;;
13102;SDS011;52970;46.752;17.108;2024-03-02T01:34:33;47.33;;;33.90;;
13102;SDS011;52970;46.752;17.108;2024-03-02T01:36:58;45.80;;;34.08;;
13102;SDS011;52970;46.752;17.108;2024-03-02T01:39:23;46.45;;;33.05;;
13102;SDS011;52970;46.752;17.108;2024-03-02T01:41:49;48.40;;;35.22;;
13102;SDS011;52970;46.752;17.108;2024-03-02T01:44:14;61.65;;;40.90;;
13102;SDS011;52970;46.752;17.108;2024-03-02T01:46:39;62.85;;;41.33;;
13102;SDS011;52970;46.752;17.108;2024-03-02T01:49:04;58.15;;;39.60;;
13102;SDS011;52970;46.752;17.108;2024-03-02T01:51:31;48.88;;;33.30;;
13102;SDS011;52970;46.752;17.108;2024-03-02T01:53:56;45.65;;;32.80;;
13102;SDS011;52970;46.752;17.108;2024-03-02T01:56:21;51.95;;;36.47;;
13102;SDS011;52970;46.752;17.108;2024-03-02T01:58:47;49.15;;;35.15;;
13102;SDS011;52970;46.752;17.108;2024-03-02T02:01:12;56.10;;;39.03;;
13102;SDS011;52970;46.752;17.108;2024-03-02T02:03:37;62.60;;;42.58;;
13102;SDS011;52970;46.752;17.108;2024-03-02T02:06:03;53.58;;;37.28;;
13102;SDS011;52970;46.752;17.108;2024-03-02T02:08:28;58.15;;;38.30;;
13102;SDS011;52970;46.752;17.108;2024-03-02T02:10:53;52.20;;;36.10;;
13102;SDS011;52970;46.752;17.108;2024-03-02T02:13:19;54.65;;;36.38;;
13102;SDS011;52970;46.752;17.108;2024-03-02T02:15:44;48.85;;;34.60;;
13102;SDS011;52970;46.752;17.108;2024-03-02T02:18:10;53.83;;;36.63;;
13102;SDS011;52970;46.752;17.108;2024-03-02T02:20:35;54.08;;;36.55;;
13102;SDS011;52970;46.752;17.108;2024-03-02T02:23:02;51.00;;;34.20;;
13102;SDS011;52970;46.752;17.108;2024-03-02T02:25:28;55.53;;;35.97;;
13102;SDS011;52970;46.752;17.108;2024-03-02T02:27:54;51.90;;;35.08;;
13102;SDS011;52970;46.752;17.108;2024-03-02T02:30:20;50.40;;;34.35;;
13102;SDS011;52970;46.752;17.108;2024-03-02T02:32:45;49.92;;;33.13;;
13102;SDS011;52970;46.752;17.108;2024-03-02T02:35:11;52.22;;;36.40;;
13102;SDS011;52970;46.752;17.108;2024-03-02T02:37:36;52.80;;;35.28;;
13102;SDS011;52970;46.752;17.108;2024-03-02T02:40:01;49.00;;;34.67;;
13102;SDS011;52970;46.752;17.108;2024-03-02T02:42:27;53.50;;;36.13;;
13102;SDS011;52970;46.752;17.108;2024-03-02T02:44:52;53.47;;;34.53;;
13102;SDS011;52970;46.752;17.108;2024-03-02T02:47:17;52.25;;;35.53;;
13102;SDS011;52970;46.752;17.108;2024-03-02T02:49:42;51.83;;;34.38;;
13102;SDS011;52970;46.752;17.108;2024-03-02T02:52:08;50.17;;;34.65;;
13102;SDS011;52970;46.752;17.108;2024-03-02T02:54:33;53.45;;;34.75;;
13102;SDS011;52970;46.752;17.108;2024-03-02T02:56:58;46.70;;;33.40;;
13102;SDS011;52970;46.752;17.108;2024-03-02T02:59:24;47.05;;;33.33;;
13102;SDS011;52970;46.752;17.108;2024-03-02T03:01:51;47.25;;;33.95;;
13102;SDS011;52970;46.752;17.108;2024-03-02T03:04:16;47.50;;;33.17;;
13102;SDS011;52970;46.752;17.108;2024-03-02T03:06:41;46.28;;;33.63;;
13102;SDS011;52970;46.752;17.108;2024-03-02T03:09:06;47.35;;;33.70;;
13102;SDS011;52970;46.752;17.108;2024-03-02T03:11:32;44.63;;;33.08;;
13102;SDS011;52970;46.752;17.108;2024-03-02T03:13:57;47.70;;;34.60;;
13102;SDS011;52970;46.752;17.108;2024-03-02T03:16:22;47.25;;;33.45;;
13102;SDS011;52970;46.752;17.108;2024-03-02T03:18:47;45.65;;;34.65;;
13102;SDS011;52970;46.752;17.108;2024-03-02T03:21:15;43.90;;;32.42;;
13102;SDS011;52970;46.752;17.108;2024-03-02T03:23:40;42.63;;;32.53;;
13102;SDS011;52970;46.752;17.108;2024-03-02T03:26:06;44.88;;;32.63;;
13102;SDS011;52970;46.752;17.108;2024-03-02T03:28:31;47.05;;;32.72;;
13102;SDS011;52970;46.752;17.108;2024-03-02T03:30:56;46.33;;;32.97;;
13102;SDS011;52970;46.752;17.108;2024-03-02T03:33:21;42.92;;;31.85;;
13102;SDS011;52970;46.752;17.108;2024-03-02T03:35:46;45.90;;;32.75;;
13102;SDS011;52970;46.752;17.108;2024-03-02T03:38:13;46.40;;;33.00;;
13102;SDS011;52970;46.752;17.108;2024-03-02T03:40:39;44.90;;;32.83;;
13102;SDS011;52970;46.752;17.108;2024-03-02T03:43:04;48.67;;;34.80;;
13102;SDS011;52970;46.752;17.108;2024-03-02T03:45:29;45.55;;;32.55;;
13102;SDS011;52970;46.752;17.108;2024-03-02T03:47:55;58.63;;;40.50;;
13102;SDS011;52970;46.752;17.108;2024-03-02T03:50:20;51.03;;;35.20;;
13102;SDS011;52970;46.752;17.108;2024-03-02T03:52:46;47.78;;;33.42;;
13102;SDS011;52970;46.752;17.108;2024-03-02T03:55:11;46.45;;;32.25;;
13102;SDS011;52970;46.752;17.108;2024-03-02T03:57:36;47.67;;;32.45;;
13102;SDS011;52970;46.752;17.108;2024-03-02T04:00:02;75.35;;;43.25;;
13102;SDS011;52970;46.752;17.108;2024-03-02T04:02:27;60.35;;;37.55;;
13102;SDS011;52970;46.752;17.108;2024-03-02T04:04:52;59.63;;;37.00;;
13102;SDS011;52970;46.752;17.108;2024-03-02T04:07:18;61.03;;;36.08;;
13102;SDS011;52970;46.752;17.108;2024-03-02T04:09:43;51.92;;;35.72;;
13102;SDS011;52970;46.752;17.108;2024-03-02T04:12:09;49.22;;;33.85;;
13102;SDS011;52970;46.752;17.108;2024-03-02T04:14:34;51.53;;;33.75;;
13102;SDS011;52970;46.752;17.108;2024-03-02T04:16:59;55.97;;;37.42;;
13102;SDS011;52970;46.752;17.108;2024-03-02T04:19:25;54.50;;;34.25;;
13102;SDS011;52970;46.752;17.108;2024-03-02T04:21:50;51.70;;;36.30;;
13102;SDS011;52970;46.752;17.108;2024-03-02T04:24:15;51.42;;;34.53;;
13102;SDS011;52970;46.752;17.108;2024-03-02T04:26:40;53.17;;;34.38;;
13102;SDS011;52970;46.752;17.108;2024-03-02T04:29:06;55.92;;;35.20;;
13102;SDS011;52970;46.752;17.108;2024-03-02T04:31:31;50.33;;;34.97;;
13102;SDS011;52970;46.752;17.108;2024-03-02T04:33:57;48.33;;;33.22;;
13102;SDS011;52970;46.752;17.108;2024-03-02T04:36:22;46.47;;;33.40;;
13102;SDS011;52970;46.752;17.108;2024-03-02T04:38:48;46.50;;;32.70;;
13102;SDS011;52970;46.752;17.108;2024-03-02T04:41:13;53.30;;;35.22;;
13102;SDS011;52970;46.752;17.108;2024-03-02T04:43:39;46.70;;;32.58;;
13102;SDS011;52970;46.752;17.108;2024-03-02T04:46:04;48.65;;;33.42;;
13102;SDS011;52970;46.752;17.108;2024-03-02T04:48:30;47.70;;;33.67;;
13102;SDS011;52970;46.752;17.108;2024-03-02T04:50:55;44.20;;;32.95;;
13102;SDS011;52970;46.752;17.108;2024-03-02T04:53:21;60.67;;;41.00;;
13102;SDS011;52970;46.752;17.108;2024-03-02T04:55:47;54.25;;;38.60;;
13102;SDS011;52970;46.752;17.108;2024-03-02T04:58:21;68.53;;;46.03;;
13102;SDS011;52970;46.752;17.108;2024-03-02T05:00:46;67.85;;;47.97;;
13102;SDS011;52970;46.752;17.108;2024-03-02T05:03:11;59.60;;;40.65;;
13102;SDS011;52970;46.752;17.108;2024-03-02T05:05:37;55.40;;;38.83;;
13102;SDS011;52970;46.752;17.108;2024-03-02T05:08:03;52.42;;;36.35;;
13102;SDS011;52970;46.752;17.108;2024-03-02T05:10:28;49.17;;;35.47;;
13102;SDS011;52970;46.752;17.108;2024-03-02T05:12:54;56.30;;;37.63;;
13102;SDS011;52970;46.752;17.108;2024-03-02T05:15:24;53.25;;;36.65;;
13102;SDS011;52970;46.752;17.108;2024-03-02T05:17:49;50.33;;;34.67;;
13102;SDS011;52970;46.752;17.108;2024-03-02T05:20:16;57.72;;;36.55;;
13102;SDS011;52970;46.752;17.108;2024-03-02T05:22:42;52.13;;;36.15;;
13102;SDS011;52970;46.752;17.108;2024-03-02T05:25:07;49.50;;;35.88;;
13102;SDS011;52970;46.752;17.108;2024-03-02T05:27:32;51.58;;;36.03;;
13102;SDS011;52970;46.752;17.108;2024-03-02T05:29:58;54.80;;;35.95;;
13102;SDS011;52970;46.752;17.108;2024-03-02T05:32:23;53.08;;;35.40;;
13102;SDS011;52970;46.752;17.108;2024-03-02T05:34:48;50.30;;;35.47;;
13102;SDS011;52970;46.752;17.108;2024-03-02T05:37:16;65.93;;;55.95;;
13102;SDS011;52970;46.752;17.108;2024-03-02T05:39:41;59.50;;;45.83;;
13102;SDS011;52970;46.752;17.108;2024-03-02T05:42:08;55.85;;;40.00;;
13102;SDS011;52970;46.752;17.108;2024-03-02T05:44:33;53.95;;;37.92;;
13102;SDS011;52970;46.752;17.108;2024-03-02T05:46:59;54.15;;;39.35;;
13102;SDS011;52970;46.752;17.108;2024-03-02T05:49:24;56.58;;;40.55;;
13102;SDS011;52970;46.752;17.108;2024-03-02T05:51:49;54.45;;;38.25;;
13102;SDS011;52970;46.752;17.108;2024-03-02T05:54:14;53.17;;;38.13;;
13102;SDS011;52970;46.752;17.108;2024-03-02T05:56:39;55.63;;;37.38;;
13102;SDS011;52970;46.752;17.108;2024-03-02T05:59:05;53.53;;;36.28;;
13102;SDS011;52970;46.752;17.108;2024-03-02T06:01:41;65.10;;;39.90;;
13102;SDS011;52970;46.752;17.108;2024-03-02T06:04:08;57.22;;;36.38;;
13102;SDS011;52970;46.752;17.108;2024-03-02T06:06:33;56.15;;;37.28;;
13102;SDS011;52970;46.752;17.108;2024-03-02T06:08:59;54.38;;;36.92;;
13102;SDS011;52970;46.752;17.108;2024-03-02T06:11:24;56.90;;;35.88;;
13102;SDS011;52970;46.752;17.108;2024-03-02T06:13:50;55.40;;;36.00;;
13102;SDS011;52970;46.752;17.108;2024-03-02T06:16:15;53.90;;;35.50;;
13102;SDS011;52970;46.752;17.108;2024-03-02T06:18:40;54.70;;;37.33;;
13102;SDS011;52970;46.752;17.108;2024-03-02T06:21:05;49.60;;;33.67;;
13102;SDS011;52970;46.752;17.108;2024-03-02T06:23:31;55.83;;;34.80;;
13102;SDS011;52970;46.752;17.108;2024-03-02T06:25:57;52.92;;;36.67;;
13102;SDS011;52970;46.752;17.108;2024-03-02T06:28:23;58.67;;;38.88;;
13102;SDS011;52970;46.752;17.108;2024-03-02T06:30:48;50.92;;;35.13;;
13102;SDS011;52970;46.752;17.108;2024-03-02T06:33:14;51.13;;;35.58;;
13102;SDS011;52970;46.752;17.108;2024-03-02T06:35:39;53.53;;;36.35;;
13102;SDS011;52970;46.752;17.108;2024-03-02T06:38:04;51.03;;;33.70;;
13102;SDS011;52970;46.752;17.108;2024-03-02T06:40:30;52.95;;;37.47;;
13102;SDS011;52970;46.752;17.108;2024-03-02T06:42:55;56.90;;;39.70;;
13102;SDS011;52970;46.752;17.108;2024-03-02T06:45:20;47.92;;;35.88;;
13102;SDS011;52970;46.752;17.108;2024-03-02T06:47:45;55.13;;;37.35;;
13102;SDS011;52970;46.752;17.108;2024-03-02T06:50:10;55.72;;;36.00;;
13102;SDS011;52970;46.752;17.108;2024-03-02T06:52:36;54.20;;;34.50;;
13102;SDS011;52970;46.752;17.108;2024-03-02T06:55:02;56.35;;;39.58;;
13102;SDS011;52970;46.752;17.108;2024-03-02T06:57:27;55.92;;;37.28;;
13102;SDS011;52970;46.752;17.108;2024-03-02T06:59:52;51.78;;;35.13;;
13102;SDS011;52970;46.752;17.108;2024-03-02T07:02:20;57.58;;;36.42;;
13102;SDS011;52970;46.752;17.108;2024-03-02T07:04:45;55.58;;;35.42;;
13102;SDS011;52970;46.752;17.108;2024-03-02T07:07:10;58.30;;;37.58;;
13102;SDS011;52970;46.752;17.108;2024-03-02T07:09:36;57.42;;;36.30;;
13102;SDS011;52970;46.752;17.108;2024-03-02T07:12:02;57.38;;;36.83;;
13102;SDS011;52970;46.752;17.108;2024-03-02T07:14:27;54.60;;;36.90;;
13102;SDS011;52970;46.752;17.108;2024-03-02T07:17:12;53.35;;;36.08;;
13102;SDS011;52970;46.752;17.108;2024-03-02T07:19:37;58.20;;;37.80;;
13102;SDS011;52970;46.752;17.108;2024-03-02T07:22:05;53.78;;;36.00;;
13102;SDS011;52970;46.752;17.108;2024-03-02T07:24:30;56.50;;;37.25;;
13102;SDS011;52970;46.752;17.108;2024-03-02T07:26:56;57.55;;;37.40;;
13102;SDS011;52970;46.752;17.108;2024-03-02T07:29:21;55.05;;;37.47;;
13102;SDS011;52970;46.752;17.108;2024-03-02T07:31:46;53.88;;;36.50;;
13102;SDS011;52970;46.752;17.108;2024-03-02T07:34:11;53.40;;;36.78;;
13102;SDS011;52970;46.752;17.108;2024-03-02T07:36:36;61.38;;;39.60;;
13102;SDS011;52970;46.752;17.108;2024-03-02T07:39:03;66.40;;;43.60;;
13102;SDS011;52970;46.752;17.108;2024-03-02T07:41:29;75.80;;;45.90;;
13102;SDS011;52970;46.752;17.108;2024-03-02T07:43:54;100.35;;;59.35;;
13102;SDS011;52970;46.752;17.108;2024-03-02T07:46:19;71.38;;;46.08;;
13102;SDS011;52970;46.752;17.108;2024-03-02T07:48:44;66.38;;;40.58;;
13102;SDS011;52970;46.752;17.108;2024-03-02T07:51:10;62.35;;;38.67;;
13102;SDS011;52970;46.752;17.108;2024-03-02T07:53:35;57.38;;;38.63;;
13102;SDS011;52970;46.752;17.108;2024-03-02T07:56:01;65.40;;;41.22;;
13102;SDS011;52970;46.752;17.108;2024-03-02T07:58:27;57.70;;;39.72;;
13102;SDS011;52970;46.752;17.108;2024-03-02T08:00:52;60.85;;;38.38;;
13102;SDS011;52970;46.752;17.108;2024-03-02T08:03:18;56.20;;;37.05;;
13102;SDS011;52970;46.752;17.108;2024-03-02T08:05:43;59.33;;;38.30;;
13102;SDS011;52970;46.752;17.108;2024-03-02T08:08:09;60.67;;;39.03;;
13102;SDS011;52970;46.752;17.108;2024-03-02T08:10:34;58.03;;;39.03;;
13102;SDS011;52970;46.752;17.108;2024-03-02T08:12:59;57.85;;;39.35;;
13102;SDS011;52970;46.752;17.108;2024-03-02T08:15:25;62.67;;;38.55;;
13102;SDS011;52970;46.752;17.108;2024-03-02T08:17:50;63.55;;;39.80;;
13102;SDS011;52970;46.752;17.108;2024-03-02T08:20:15;59.72;;;38.42;;
13102;SDS011;52970;46.752;17.108;2024-03-02T08:22:40;61.58;;;38.70;;
13102;SDS011;52970;46.752;17.108;2024-03-02T08:25:06;60.10;;;38.90;;
13102;SDS011;52970;46.752;17.108;2024-03-02T08:27:32;58.42;;;35.83;;
13102;SDS011;52970;46.752;17.108;2024-03-02T08:29:58;63.05;;;39.58;;
13102;SDS011;52970;46.752;17.108;2024-03-02T08:32:23;72.85;;;45.05;;
13102;SDS011;52970;46.752;17.108;2024-03-02T08:34:48;69.68;;;44.30;;
13102;SDS011;52970;46.752;17.108;2024-03-02T08:37:13;67.80;;;42.63;;
13102;SDS011;52970;46.752;17.108;2024-03-02T08:39:38;66.18;;;43.53;;
13102;SDS011;52970;46.752;17.108;2024-03-02T08:42:04;68.68;;;43.42;;
13102;SDS011;52970;46.752;17.108;2024-03-02T08:44:29;66.18;;;43.13;;
13102;SDS011;52970;46.752;17.108;2024-03-02T08:46:54;68.30;;;43.40;;
13102;SDS011;52970;46.752;17.108;2024-03-02T08:49:20;65.90;;;42.75;;
13102;SDS011;52970;46.752;17.108;2024-03-02T08:51:45;67.20;;;43.45;;
13102;SDS011;52970;46.752;17.108;2024-03-02T08:54:19;66.50;;;43.55;;
13102;SDS011;52970;46.752;17.108;2024-03-02T08:56:44;69.55;;;45.17;;
13102;SDS011;52970;46.752;17.108;2024-03-02T08:59:09;66.15;;;41.47;;
13102;SDS011;52970;46.752;17.108;2024-03-02T09:01:34;60.80;;;40.70;;
13102;SDS011;52970;46.752;17.108;2024-03-02T09:04:00;59.65;;;38.75;;
13102;SDS011;52970;46.752;17.108;2024-03-02T09:06:25;47.13;;;31.17;;
13102;SDS011;52970;46.752;17.108;2024-03-02T09:08:51;45.20;;;31.02;;
13102;SDS011;52970;46.752;17.108;2024-03-02T09:11:17;41.05;;;27.23;;
13102;SDS011;52970;46.752;17.108;2024-03-02T09:13:42;37.03;;;24.95;;
13102;SDS011;52970;46.752;17.108;2024-03-02T09:16:07;38.88;;;26.08;;
13102;SDS011;52970;46.752;17.108;2024-03-02T09:18:35;42.08;;;26.95;;
13102;SDS011;52970;46.752;17.108;2024-03-02T09:21:01;39.10;;;26.17;;
13102;SDS011;52970;46.752;17.108;2024-03-02T09:23:26;45.63;;;29.02;;
13102;SDS011;52970;46.752;17.108;2024-03-02T09:25:51;48.30;;;30.33;;
13102;SDS011;52970;46.752;17.108;2024-03-02T09:28:16;49.45;;;30.63;;
13102;SDS011;52970;46.752;17.108;2024-03-02T09:30:42;49.33;;;32.33;;
13102;SDS011;52970;46.752;17.108;2024-03-02T09:33:07;53.47;;;34.55;;
13102;SDS011;52970;46.752;17.108;2024-03-02T09:35:32;52.33;;;34.40;;
13102;SDS011;52970;46.752;17.108;2024-03-02T09:37:57;50.72;;;32.30;;
13102;SDS011;52970;46.752;17.108;2024-03-02T09:40:23;62.50;;;39.78;;
13102;SDS011;52970;46.752;17.108;2024-03-02T09:42:48;61.80;;;39.55;;
13102;SDS011;52970;46.752;17.108;2024-03-02T09:45:19;62.83;;;39.13;;
13102;SDS011;52970;46.752;17.108;2024-03-02T09:47:47;58.75;;;37.58;;
13102;SDS011;52970;46.752;17.108;2024-03-02T09:50:12;58.33;;;33.65;;
13102;SDS011;52970;46.752;17.108;2024-03-02T09:52:37;49.67;;;32.97;;
13102;SDS011;52970;46.752;17.108;2024-03-02T09:55:03;43.40;;;30.48;;
13102;SDS011;52970;46.752;17.108;2024-03-02T09:57:30;45.28;;;29.20;;
13102;SDS011;52970;46.752;17.108;2024-03-02T09:59:55;47.95;;;31.50;;
13102;SDS011;52970;46.752;17.108;2024-03-02T10:02:20;48.38;;;32.13;;
13102;SDS011;52970;46.752;17.108;2024-03-02T10:04:48;44.40;;;31.67;;
13102;SDS011;52970;46.752;17.108;2024-03-02T10:07:14;46.22;;;30.75;;
13102;SDS011;52970;46.752;17.108;2024-03-02T10:09:40;43.47;;;29.75;;
13102;SDS011;52970;46.752;17.108;2024-03-02T10:12:06;44.08;;;30.08;;
13102;SDS011;52970;46.752;17.108;2024-03-02T10:14:32;51.20;;;33.38;;
13102;SDS011;52970;46.752;17.108;2024-03-02T10:17:05;38.90;;;27.08;;
13102;SDS011;52970;46.752;17.108;2024-03-02T10:19:31;35.47;;;26.23;;
13102;SDS011;52970;46.752;17.108;2024-03-02T10:22:00;40.78;;;28.92;;
13102;SDS011;52970;46.752;17.108;2024-03-02T10:24:26;39.25;;;28.00;;
13102;SDS011;52970;46.752;17.108;2024-03-02T10:26:51;41.50;;;28.13;;
13102;SDS011;52970;46.752;17.108;2024-03-02T10:29:17;45.00;;;29.73;;
13102;SDS011;52970;46.752;17.108;2024-03-02T10:31:46;47.28;;;32.22;;
13102;SDS011;52970;46.752;17.108;2024-03-02T10:34:12;48.05;;;34.13;;
13102;SDS011;52970;46.752;17.108;2024-03-02T10:36:38;48.08;;;34.08;;
13102;SDS011;52970;46.752;17.108;2024-03-02T10:39:06;50.20;;;34.00;;
13102;SDS011;52970;46.752;17.108;2024-03-02T10:41:32;51.05;;;34.10;;
13102;SDS011;52970;46.752;17.108;2024-03-02T10:43:58;48.47;;;32.38;;
13102;SDS011;52970;46.752;17.108;2024-03-02T10:46:42;44.75;;;32.58;;
13102;SDS011;52970;46.752;17.108;2024-03-02T10:49:10;43.88;;;29.52;;
13102;SDS011;52970;46.752;17.108;2024-03-02T10:51:36;43.45;;;30.73;;
13102;SDS011;52970;46.752;17.108;2024-03-02T10:54:03;45.45;;;31.15;;
13102;SDS011;52970;46.752;17.108;2024-03-02T10:56:32;49.15;;;33.17;;
13102;SDS011;52970;46.752;17.108;2024-03-02T11:01:25;47.63;;;33.88;;
13102;SDS011;52970;46.752;17.108;2024-03-02T11:03:51;54.45;;;34.53;;
13102;SDS011;52970;46.752;17.108;2024-03-02T11:06:16;46.15;;;32.78;;
13102;SDS011;52970;46.752;17.108;2024-03-02T11:08:42;47.70;;;33.58;;
13102;SDS011;52970;46.752;17.108;2024-03-02T11:11:15;47.70;;;33.42;;
13102;SDS011;52970;46.752;17.108;2024-03-02T11:13:41;49.40;;;34.95;;
13102;SDS011;52970;46.752;17.108;2024-03-02T11:16:09;52.03;;;34.42;;
13102;SDS011;52970;46.752;17.108;2024-03-02T11:18:37;49.05;;;33.05;;
13102;SDS011;52970;46.752;17.108;2024-03-02T11:21:04;47.53;;;31.95;;
13102;SDS011;52970;46.752;17.108;2024-03-02T11:23:33;42.25;;;31.42;;
13102;SDS011;52970;46.752;17.108;2024-03-02T11:28:56;50.05;;;33.10;;
13102;SDS011;52970;46.752;17.108;2024-03-02T11:31:28;46.60;;;32.75;;
13102;SDS011;52970;46.752;17.108;2024-03-02T11:34:18;45.40;;;31.10;;
13102;SDS011;52970;46.752;17.108;2024-03-02T11:36:54;48.20;;;34.05;;
13102;SDS011;52970;46.752;17.108;2024-03-02T11:39:19;47.38;;;32.95;;
13102;SDS011;52970;46.752;17.108;2024-03-02T11:41:45;47.75;;;31.52;;
13102;SDS011;52970;46.752;17.108;2024-03-02T11:44:10;49.33;;;33.17;;
13102;SDS011;52970;46.752;17.108;2024-03-02T11:46:39;47.88;;;32.75;;
13102;SDS011;52970;46.752;17.108;2024-03-02T11:49:04;47.90;;;33.45;;
13102;SDS011;52970;46.752;17.108;2024-03-02T11:51:29;44.72;;;31.70;;
13102;SDS011;52970;46.752;17.108;2024-03-02T11:53:56;45.67;;;32.65;;
13102;SDS011;52970;46.752;17.108;2024-03-02T11:56:22;48.03;;;33.20;;
13102;SDS011;52970;46.752;17.108;2024-03-02T11:58:48;45.97;;;32.17;;
13102;SDS011;52970;46.752;17.108;2024-03-02T12:01:16;46.30;;;32.78;;
13102;SDS011;52970;46.752;17.108;2024-03-02T12:03:41;48.28;;;32.45;;
13102;SDS011;52970;46.752;17.108;2024-03-02T12:06:06;41.60;;;31.05;;
13102;SDS011;52970;46.752;17.108;2024-03-02T12:08:31;49.40;;;32.92;;
13102;SDS011;52970;46.752;17.108;2024-03-02T12:10:58;45.50;;;31.02;;
13102;SDS011;52970;46.752;17.108;2024-03-02T12:13:24;44.90;;;32.03;;
13102;SDS011;52970;46.752;17.108;2024-03-02T12:15:52;45.83;;;32.40;;
13102;SDS011;52970;46.752;17.108;2024-03-02T12:18:17;50.80;;;31.70;;
13102;SDS011;52970;46.752;17.108;2024-03-02T12:20:43;44.65;;;32.10;;
13102;SDS011;52970;46.752;17.108;2024-03-02T12:23:08;47.28;;;32.53;;
13102;SDS011;52970;46.752;17.108;2024-03-02T12:25:34;44.60;;;30.90;;
13102;SDS011;52970;46.752;17.108;2024-03-02T12:28:00;44.55;;;32.05;;
13102;SDS011;52970;46.752;17.108;2024-03-02T12:30:26;44.45;;;31.02;;
13102;SDS011;52970;46.752;17.108;2024-03-02T12:32:51;46.45;;;31.13;;
13102;SDS011;52970;46.752;17.108;2024-03-02T12:35:17;42.55;;;30.77;;
13102;SDS011;52970;46.752;17.108;2024-03-02T12:37:52;46.42;;;32.53;;
13102;SDS011;52970;46.752;17.108;2024-03-02T12:40:18;41.75;;;30.02;;
13102;SDS011;52970;46.752;17.108;2024-03-02T12:42:43;43.20;;;29.88;;
13102;SDS011;52970;46.752;17.108;2024-03-02T12:45:09;44.75;;;30.05;;
13102;SDS011;52970;46.752;17.108;2024-03-02T12:47:35;40.78;;;30.70;;
13102;SDS011;52970;46.752;17.108;2024-03-02T12:50:00;45.25;;;31.48;;
13102;SDS011;52970;46.752;17.108;2024-03-02T12:52:26;44.50;;;30.65;;
13102;SDS011;52970;46.752;17.108;2024-03-02T12:54:51;44.20;;;31.25;;
13102;SDS011;52970;46.752;17.108;2024-03-02T12:57:20;38.42;;;29.83;;
13102;SDS011;52970;46.752;17.108;2024-03-02T12:59:46;41.97;;;29.52;;
13102;SDS011;52970;46.752;17.108;2024-03-02T13:02:18;44.65;;;32.85;;
13102;SDS011;52970;46.752;17.108;2024-03-02T13:04:43;42.25;;;31.45;;
13102;SDS011;52970;46.752;17.108;2024-03-02T13:07:09;44.72;;;31.40;;
13102;SDS011;52970;46.752;17.108;2024-03-02T13:09:35;45.47;;;31.73;;
13102;SDS011;52970;46.752;17.108;2024-03-02T13:12:00;46.55;;;31.73;;
13102;SDS011;52970;46.752;17.108;2024-03-02T13:14:25;43.47;;;31.15;;
13102;SDS011;52970;46.752;17.108;2024-03-02T13:16:51;47.60;;;31.80;;
13102;SDS011;52970;46.752;17.108;2024-03-02T13:19:17;41.40;;;31.00;;
13102;SDS011;52970;46.752;17.108;2024-03-02T13:21:44;47.70;;;31.77;;
13102;SDS011;52970;46.752;17.108;2024-03-02T13:24:09;46.72;;;31.75;;
13102;SDS011;52970;46.752;17.108;2024-03-02T13:26:34;45.85;;;31.63;;
13102;SDS011;52970;46.752;17.108;2024-03-02T13:29:00;42.83;;;30.73;;
13102;SDS011;52970;46.752;17.108;2024-03-02T13:31:25;41.92;;;30.55;;
13102;SDS011;52970;46.752;17.108;2024-03-02T13:33:50;44.78;;;31.95;;
13102;SDS011;52970;46.752;17.108;2024-03-02T13:36:15;44.53;;;32.10;;
13102;SDS011;52970;46.752;17.108;2024-03-02T13:38:42;44.80;;;30.73;;
13102;SDS011;52970;46.752;17.108;2024-03-02T13:41:07;48.03;;;32.17;;
13102;SDS011;52970;46.752;17.108;2024-03-02T13:43:32;42.50;;;29.85;;
13102;SDS011;52970;46.752;17.108;2024-03-02T13:45:59;43.63;;;30.35;;
13102;SDS011;52970;46.752;17.108;2024-03-02T13:48:25;42.40;;;30.42;;
13102;SDS011;52970;46.752;17.108;2024-03-02T13:50:53;40.55;;;29.90;;
13102;SDS011;52970;46.752;17.108;2024-03-02T13:53:18;41.28;;;30.92;;
13102;SDS011;52970;46.752;17.108;2024-03-02T13:55:43;37.78;;;29.42;;
13102;SDS011;52970;46.752;17.108;2024-03-02T13:58:09;41.88;;;29.40;;
13102;SDS011;52970;46.752;17.108;2024-03-02T14:00:34;40.63;;;29.15;;
13102;SDS011;52970;46.752;17.108;2024-03-02T14:03:00;40.25;;;28.85;;
13102;SDS011;52970;46.752;17.108;2024-03-02T14:05:25;41.10;;;29.33;;
13102;SDS011;52970;46.752;17.108;2024-03-02T14:07:50;37.15;;;27.30;;
13102;SDS011;52970;46.752;17.108;2024-03-02T14:10:16;36.58;;;28.45;;